Time;durP1;ratioP1;P1;durP2;ratioP2;P2;SDS_P1;SDS_P2;PMS_P1;PMS_P2;Temp;Humidity;BMP_temperature;BMP_pressure;BME280_temperature;BME280_humidity;BME280_pressure;Samples;Min_cycle;Max_cycle;Signal;HPM_P1;HPM_P2
2023/06/29 00:01:55;;;;;;;;;;;;;;;17.05;39.17;100785.94;4943177;27;98843;-71
2023/06/29 00:04:25;;;;;;;;;;;;;;;17.02;38.96;100779.22;4929454;28;98086;-71
2023/06/29 00:06:52;;;;;;;;;;;;;;;17.00;38.94;100781.41;4929168;28;98367;-67
2023/06/29 00:09:20;;;;;;;;;;;;;;;16.97;39.13;100783.94;4940212;28;97894;-71
2023/06/29 00:11:46;;;;;;;;;;;;;;;16.95;39.12;100789.69;4926459;28;99570;-67
2023/06/29 00:14:12;;;;;;;;;;;;;;;16.92;39.20;100796.53;4941416;28;98548;-71
2023/06/29 00:16:38;;;;;;;;;;;;;;;16.91;39.03;100785.97;4922641;28;97967;-67
2023/06/29 00:19:07;;;;;;;;;;;;;;;16.88;39.09;100784.63;4927414;28;99468;-68
2023/06/29 00:21:34;;;;;;;;;;;;;;;16.86;39.17;100788.78;4927874;28;98235;-71
2023/06/29 00:24:01;;;;;;;;;;;;;;;16.83;39.28;100789.38;4926482;28;98046;-70
2023/06/29 00:26:28;;;;;;;;;;;;;;;16.77;39.02;100783.22;4924753;28;98109;-66
2023/06/29 00:28:55;;;;;;;;;;;;;;;16.72;39.28;100785.19;4927887;28;99111;-67
2023/06/29 00:31:24;;;;;;;;;;;;;;;16.70;39.13;100780.03;4943364;28;98381;-67
2023/06/29 00:33:51;;;;;;;;;;;;;;;16.68;39.43;100783.06;4924735;28;98109;-70
2023/06/29 00:36:18;;;;;;;;;;;;;;;16.65;39.42;100780.94;4927732;28;98300;-71
2023/06/29 00:38:44;;;;;;;;;;;;;;;16.62;39.16;100775.28;4921308;28;98009;-67
2023/06/29 00:41:10;;;;;;;;;;;;;;;16.57;39.21;100778.13;4938413;28;98013;-67
2023/06/29 00:43:37;;;;;;;;;;;;;;;16.51;39.37;100777.41;4943166;28;98262;-70
2023/06/29 00:46:07;;;;;;;;;;;;;;;16.46;39.20;100782.94;4926956;28;98334;-71
2023/06/29 00:48:37;;;;;;;;;;;;;;;16.43;39.35;100769.94;4927455;28;98390;-71
2023/06/29 00:51:04;;;;;;;;;;;;;;;16.40;39.32;100776.78;4942747;28;98139;-67
2023/06/29 00:53:30;;;;;;;;;;;;;;;16.35;39.31;100774.16;4927025;28;98270;-69
2023/06/29 00:55:57;;;;;;;;;;;;;;;16.30;39.35;100779.66;4928789;28;98022;-67
2023/06/29 00:58:24;;;;;;;;;;;;;;;16.25;39.28;100774.31;4941015;28;98106;-67
2023/06/29 01:00:50;;;;;;;;;;;;;;;16.22;39.52;100780.34;4924009;28;97966;-67
2023/06/29 01:03:17;;;;;;;;;;;;;;;16.17;39.55;100775.78;4919521;28;98172;-67
2023/06/29 01:05:45;;;;;;;;;;;;;;;16.13;39.40;100771.25;4938958;28;98102;-71
2023/06/29 01:08:19;;;;;;;;;;;;;;;16.08;39.33;100760.47;4923716;28;98001;-67
2023/06/29 01:10:46;;;;;;;;;;;;;;;16.05;39.43;100766.50;4963268;27;98305;-71
2023/06/29 01:13:12;;;;;;;;;;;;;;;16.02;39.41;100772.53;4923153;28;98092;-67
2023/06/29 01:15:38;;;;;;;;;;;;;;;15.98;39.25;100764.16;4928153;28;99308;-67
2023/06/29 01:18:05;;;;;;;;;;;;;;;15.92;39.59;100766.16;4931007;27;98548;-71
2023/06/29 01:20:31;;;;;;;;;;;;;;;15.87;39.40;100763.50;4950180;28;98679;-67
2023/06/29 01:23:20;;;;;;;;;;;;;;;15.82;39.52;100769.00;4950011;27;97964;-67
2023/06/29 01:25:46;;;;;;;;;;;;;;;15.77;39.34;100766.38;4947934;28;98190;-71
2023/06/29 01:28:13;;;;;;;;;;;;;;;15.75;39.51;100767.75;4931313;28;98570;-67
2023/06/29 01:30:49;;;;;;;;;;;;;;;15.70;39.33;100760.50;4930360;28;99008;-71
2023/06/29 01:33:18;;;;;;;;;;;;;;;15.66;39.81;100771.16;4935016;28;98311;-70
2023/06/29 01:35:45;;;;;;;;;;;;;;;15.64;39.28;100762.47;4925209;27;98958;-67
2023/06/29 01:38:23;;;;;;;;;;;;;;;15.63;39.28;100762.75;4935640;28;97925;-71
2023/06/29 01:40:50;;;;;;;;;;;;;;;15.58;39.44;100754.66;4925529;27;102312;-70
2023/06/29 01:43:17;;;;;;;;;;;;;;;15.52;39.42;100758.53;4928321;27;97963;-71
2023/06/29 01:45:43;;;;;;;;;;;;;;;15.49;39.64;100759.97;4926222;27;98480;-67
2023/06/29 01:48:10;;;;;;;;;;;;;;;15.46;39.59;100750.47;4949141;27;98094;-67
2023/06/29 01:50:36;;;;;;;;;;;;;;;15.44;39.33;100752.69;4958168;28;98811;-67
2023/06/29 01:53:02;;;;;;;;;;;;;;;15.41;39.41;100758.72;4929699;27;98360;-71
2023/06/29 01:55:29;;;;;;;;;;;;;;;15.40;39.45;100750.81;4935015;28;98055;-71
2023/06/29 01:57:55;;;;;;;;;;;;;;;15.38;39.68;100755.75;4928263;27;98052;-67
2023/06/29 02:00:22;;;;;;;;;;;;;;;15.36;39.66;100747.88;4930466;28;99293;-71
2023/06/29 02:02:48;;;;;;;;;;;;;;;15.33;39.84;100753.94;4946247;28;99519;-67
2023/06/29 02:05:15;;;;;;;;;;;;;;;15.30;39.64;100749.06;4927986;28;97962;-71
2023/06/29 02:07:41;;;;;;;;;;;;;;;15.26;39.34;100750.75;4932297;27;97970;-71
2023/06/29 02:10:08;;;;;;;;;;;;;;;15.22;39.65;100744.28;4926859;28;99736;-67
2023/06/29 02:12:34;;;;;;;;;;;;;;;15.20;39.77;100744.56;4929495;27;98197;-67
2023/06/29 02:15:01;;;;;;;;;;;;;;;15.17;39.53;100742.47;4945827;28;98239;-67
2023/06/29 02:17:27;;;;;;;;;;;;;;;15.13;39.51;100754.16;4933840;27;97876;-67
2023/06/29 02:19:54;;;;;;;;;;;;;;;15.13;39.50;100751.44;4929149;27;100808;-67
2023/06/29 02:22:20;;;;;;;;;;;;;;;15.11;39.52;100757.19;4930331;28;100101;-67
2023/06/29 02:24:46;;;;;;;;;;;;;;;15.12;39.60;100753.38;4931568;27;97849;-71
2023/06/29 02:27:13;;;;;;;;;;;;;;;15.09;39.57;100759.41;4947304;27;99282;-71
2023/06/29 02:29:40;;;;;;;;;;;;;;;15.04;39.54;100759.44;4929251;27;99882;-71
2023/06/29 02:32:07;;;;;;;;;;;;;;;15.00;39.45;100758.41;4932842;28;98029;-67
2023/06/29 02:34:33;;;;;;;;;;;;;;;14.95;39.77;100759.28;4931952;27;100221;-71
2023/06/29 02:36:59;;;;;;;;;;;;;;;14.91;39.78;100762.84;4931770;28;98168;-67
2023/06/29 02:39:25;;;;;;;;;;;;;;;14.85;39.96;100764.81;4942916;28;98281;-71
2023/06/29 02:41:52;;;;;;;;;;;;;;;14.84;39.61;100771.34;4925122;28;97943;-67
2023/06/29 02:44:18;;;;;;;;;;;;;;;14.84;39.49;100767.81;4932078;28;98312;-67
2023/06/29 02:46:45;;;;;;;;;;;;;;;14.81;39.89;100765.66;4933582;27;98177;-67
2023/06/29 02:49:11;;;;;;;;;;;;;;;14.77;39.97;100762.72;4933304;28;98091;-67
2023/06/29 02:51:38;;;;;;;;;;;;;;;14.75;39.55;100773.06;4932116;27;98176;-67
2023/06/29 02:54:05;;;;;;;;;;;;;;;14.73;39.75;100770.63;4932084;28;98084;-71
2023/06/29 02:56:31;;;;;;;;;;;;;;;14.71;39.92;100770.13;4955821;27;97995;-71
2023/06/29 02:58:58;;;;;;;;;;;;;;;14.72;39.66;100765.50;4934566;27;98863;-71
2023/06/29 03:01:24;;;;;;;;;;;;;;;14.72;39.64;100766.31;4954624;27;98902;-68
2023/06/29 03:03:50;;;;;;;;;;;;;;;14.70;39.80;100773.13;4931789;27;97931;-68
2023/06/29 03:06:16;;;;;;;;;;;;;;;14.68;39.46;100770.69;4918669;28;98230;-68
2023/06/29 03:08:43;;;;;;;;;;;;;;;14.69;39.77;100774.22;4944746;28;99462;-71
2023/06/29 03:11:09;;;;;;;;;;;;;;;14.67;39.74;100771.00;4929033;28;98022;-71
2023/06/29 03:13:35;;;;;;;;;;;;;;;14.66;39.91;100769.38;4932690;28;99454;-68
2023/06/29 03:16:02;;;;;;;;;;;;;;;14.66;39.75;100767.47;4923833;28;98158;-68
2023/06/29 03:18:28;;;;;;;;;;;;;;;14.67;39.73;100769.09;4925208;28;98259;-67
2023/06/29 03:20:54;;;;;;;;;;;;;;;14.68;39.83;100770.69;4927804;28;99946;-69
2023/06/29 03:23:20;;;;;;;;;;;;;;;14.71;39.61;100777.47;4930048;28;98802;-68
2023/06/29 03:25:47;;;;;;;;;;;;;;;14.70;39.69;100771.22;4941712;28;98518;-68
2023/06/29 03:28:13;;;;;;;;;;;;;;;14.70;39.53;100773.94;4930974;28;98216;-68
2023/06/29 03:30:39;;;;;;;;;;;;;;;14.70;39.44;100767.72;4928170;28;99985;-67
2023/06/29 03:33:06;;;;;;;;;;;;;;;14.73;39.49;100772.53;4927979;28;99261;-71
2023/06/29 03:35:33;;;;;;;;;;;;;;;14.77;39.81;100775.50;4928186;28;98322;-71
2023/06/29 03:37:59;;;;;;;;;;;;;;;14.78;39.77;100780.66;4943116;28;99952;-68
2023/06/29 03:40:25;;;;;;;;;;;;;;;14.84;39.65;100784.09;4927849;28;100137;-68
2023/06/29 03:42:51;;;;;;;;;;;;;;;14.85;39.50;100775.66;4926377;28;98023;-68
2023/06/29 03:45:18;;;;;;;;;;;;;;;14.85;39.48;100777.56;4939014;28;97984;-67
2023/06/29 03:47:44;;;;;;;;;;;;;;;14.87;39.80;100775.38;4925859;28;99814;-68
2023/06/29 03:50:10;;;;;;;;;;;;;;;14.88;39.54;100775.09;4924559;28;117725;-68
2023/06/29 03:52:36;;;;;;;;;;;;;;;14.90;39.78;100774.81;4925067;28;98033;-68
2023/06/29 03:55:02;;;;;;;;;;;;;;;14.91;39.63;100769.09;4930525;28;98486;-71
2023/06/29 03:57:29;;;;;;;;;;;;;;;14.92;39.84;100767.97;4932056;28;98170;-71
2023/06/29 03:59:55;;;;;;;;;;;;;;;14.93;39.83;100769.63;4918141;28;98139;-68
2023/06/29 04:02:22;;;;;;;;;;;;;;;14.95;39.66;100763.91;4919353;28;98895;-71
2023/06/29 04:04:48;;;;;;;;;;;;;;;14.95;39.55;100761.97;4932286;28;98153;-67
2023/06/29 04:07:15;;;;;;;;;;;;;;;14.97;39.88;100773.38;4924818;28;98196;-67
2023/06/29 04:09:41;;;;;;;;;;;;;;;15.01;39.47;100767.34;4930817;28;98519;-68
2023/06/29 04:12:07;;;;;;;;;;;;;;;15.05;39.83;100777.34;4926955;28;98069;-67
2023/06/29 04:14:34;;;;;;;;;;;;;;;15.09;39.51;100772.97;4927791;28;98007;-67
2023/06/29 04:17:00;;;;;;;;;;;;;;;15.14;39.79;100772.09;4929588;28;98239;-68
2023/06/29 04:19:26;;;;;;;;;;;;;;;15.19;39.39;100767.41;4929608;28;99988;-71
2023/06/29 04:21:52;;;;;;;;;;;;;;;15.26;39.33;100774.41;4920732;28;98268;-71
2023/06/29 04:24:18;;;;;;;;;;;;;;;15.32;39.60;100760.44;4922566;28;98042;-67
2023/06/29 04:26:45;;;;;;;;;;;;;;;15.37;39.51;100771.25;4940382;28;98836;-71
2023/06/29 04:29:12;;;;;;;;;;;;;;;15.40;39.52;100767.13;4926938;28;99313;-70
2023/06/29 04:31:39;;;;;;;;;;;;;;;15.45;39.41;100765.16;4921615;28;98200;-67
2023/06/29 04:34:05;;;;;;;;;;;;;;;15.51;39.29;100765.88;4923614;28;98237;-71
2023/06/29 04:36:31;;;;;;;;;;;;;;;15.57;39.48;100763.94;4923467;28;98269;-71
2023/06/29 04:38:58;;;;;;;;;;;;;;;15.58;39.58;100769.06;4931547;28;99012;-71
2023/06/29 04:41:31;;;;;;;;;;;;;;;15.65;39.26;100772.25;4933660;28;99578;-71
2023/06/29 04:44:00;;;;;;;;;;;;;;;15.71;39.37;100760.19;4922174;28;98143;-71
2023/06/29 04:46:30;;;;;;;;;;;;;;;15.79;39.49;100769.59;4933442;28;98250;-67
2023/06/29 04:48:56;;;;;;;;;;;;;;;15.88;39.09;100767.03;4922908;28;98127;-71
2023/06/29 04:51:25;;;;;;;;;;;;;;;15.96;39.47;100766.38;4918607;28;97950;-67
2023/06/29 04:53:51;;;;;;;;;;;;;;;16.01;39.31;100762.75;4922694;28;98463;-67
2023/06/29 04:56:18;;;;;;;;;;;;;;;16.09;39.25;100760.16;4926484;28;98286;-71
2023/06/29 04:58:44;;;;;;;;;;;;;;;16.16;39.12;100752.44;4937717;28;97941;-71
2023/06/29 05:01:10;;;;;;;;;;;;;;;16.24;39.10;100759.09;4917581;28;98132;-71
2023/06/29 05:03:36;;;;;;;;;;;;;;;16.34;39.31;100750.75;4923453;28;98415;-71
2023/06/29 05:06:02;;;;;;;;;;;;;;;16.44;39.06;100764.19;4922204;27;98311;-71
2023/06/29 05:08:29;;;;;;;;;;;;;;;16.60;39.06;100766.63;4935605;27;100706;-67
2023/06/29 05:10:55;;;;;;;;;;;;;;;16.75;39.32;100766.38;4927999;27;98503;-67
2023/06/29 05:13:21;;;;;;;;;;;;;;;16.95;39.02;100759.75;4923093;27;98797;-67
2023/06/29 05:15:48;;;;;;;;;;;;;;;17.16;38.77;100760.94;4928400;27;98352;-67
2023/06/29 05:18:15;;;;;;;;;;;;;;;17.38;38.76;100762.94;4922183;27;100782;-67
2023/06/29 05:20:42;;;;;;;;;;;;;;;17.62;38.63;100756.41;4923671;28;99058;-71
2023/06/29 05:23:10;;;;;;;;;;;;;;;17.82;38.58;100755.97;4930086;27;98191;-71
2023/06/29 05:25:38;;;;;;;;;;;;;;;18.19;38.06;100751.25;4946124;27;98165;-67
2023/06/29 05:28:04;;;;;;;;;;;;;;;18.45;37.98;100751.41;4930275;27;98143;-71
2023/06/29 05:30:30;;;;;;;;;;;;;;;18.44;38.43;100747.06;4926568;28;98580;-67
2023/06/29 05:32:58;;;;;;;;;;;;;;;18.72;38.02;100747.72;4926922;27;98179;-71
2023/06/29 05:35:24;;;;;;;;;;;;;;;18.91;38.06;100750.19;4925407;28;97986;-67
2023/06/29 05:37:50;;;;;;;;;;;;;;;19.04;38.25;100746.53;4929064;27;97910;-67
2023/06/29 05:40:17;;;;;;;;;;;;;;;19.30;38.05;100751.25;4947507;27;99357;-67
2023/06/29 05:42:43;;;;;;;;;;;;;;;19.59;37.88;100747.91;4921433;28;99524;-67
2023/06/29 05:45:10;;;;;;;;;;;;;;;19.86;37.73;100753.09;4944263;27;99694;-72
2023/06/29 05:47:36;;;;;;;;;;;;;;;20.19;37.80;100757.22;4957634;28;98059;-71
2023/06/29 05:50:04;;;;;;;;;;;;;;;20.59;37.47;100747.66;4926296;27;98232;-67
2023/06/29 05:52:33;;;;;;;;;;;;;;;21.03;37.48;100748.25;4919048;28;98111;-71
2023/06/29 05:55:00;;;;;;;;;;;;;;;21.43;37.43;100741.59;4941846;27;98055;-72
2023/06/29 05:57:26;;;;;;;;;;;;;;;21.81;37.21;100745.00;4941725;28;98877;-72
2023/06/29 05:59:53;;;;;;;;;;;;;;;22.21;37.31;100746.44;4947176;28;98243;-67
2023/06/29 06:02:19;;;;;;;;;;;;;;;22.65;37.25;100743.97;4947963;27;98028;-67
2023/06/29 06:04:45;;;;;;;;;;;;;;;23.17;37.11;100746.06;4946561;27;98066;-67
2023/06/29 06:07:15;;;;;;;;;;;;;;;23.73;37.17;100744.22;4935488;28;98429;-72
2023/06/29 06:09:41;;;;;;;;;;;;;;;24.39;36.76;100742.91;4957879;28;98199;-67
2023/06/29 06:12:08;;;;;;;;;;;;;;;25.06;36.37;100744.91;4927764;28;97961;-72
2023/06/29 06:14:34;;;;;;;;;;;;;;;26.64;35.26;100749.72;4932428;28;98212;-67
2023/06/29 06:17:00;;;;;;;;;;;;;;;28.85;33.26;100751.69;4930898;28;97898;-73
2023/06/29 06:19:27;;;;;;;;;;;;;;;28.25;34.68;100752.72;4932906;28;98282;-72
2023/06/29 06:21:54;;;;;;;;;;;;;;;28.63;34.87;100750.72;4926695;28;98350;-67
2023/06/29 06:24:21;;;;;;;;;;;;;;;28.45;35.49;100749.75;4941473;28;98846;-72
2023/06/29 06:26:47;;;;;;;;;;;;;;;29.33;35.26;100746.09;4930995;28;99558;-67
2023/06/29 06:29:13;;;;;;;;;;;;;;;29.93;34.88;100744.75;4962797;28;98329;-67
2023/06/29 06:31:40;;;;;;;;;;;;;;;31.06;34.25;100754.41;4928365;28;98189;-67
2023/06/29 06:34:07;;;;;;;;;;;;;;;31.81;34.05;100751.41;4948649;28;99029;-68
2023/06/29 06:36:33;;;;;;;;;;;;;;;32.08;34.21;100745.31;4925752;28;98343;-68
2023/06/29 06:39:00;;;;;;;;;;;;;;;31.67;34.64;100745.88;4931531;28;98048;-73
2023/06/29 06:41:26;;;;;;;;;;;;;;;31.36;34.91;100742.84;4939065;28;98121;-67
2023/06/29 06:43:53;;;;;;;;;;;;;;;30.75;35.39;100742.91;4928284;28;99334;-68
2023/06/29 06:46:19;;;;;;;;;;;;;;;30.22;35.58;100737.31;4944841;28;98587;-72
2023/06/29 06:48:47;;;;;;;;;;;;;;;29.82;36.09;100737.19;4929671;28;98095;-71
2023/06/29 06:51:14;;;;;;;;;;;;;;;29.54;35.99;100731.50;4931228;28;98032;-72
2023/06/29 06:53:40;;;;;;;;;;;;;;;29.23;36.04;100730.94;4928720;28;98086;-72
2023/06/29 06:56:06;;;;;;;;;;;;;;;29.15;36.31;100731.31;4921984;28;98211;-72
2023/06/29 06:58:34;;;;;;;;;;;;;;;29.16;36.00;100725.38;4923566;28;98049;-72
2023/06/29 07:01:00;;;;;;;;;;;;;;;28.82;36.57;100727.50;4935720;28;97928;-67
2023/06/29 07:03:27;;;;;;;;;;;;;;;29.51;35.62;100719.19;4931067;28;98251;-72
2023/06/29 07:05:53;;;;;;;;;;;;;;;29.97;35.31;100721.34;4932349;27;99396;-72
2023/06/29 07:08:20;;;;;;;;;;;;;;;30.63;34.79;100726.63;4936159;28;98006;-67
2023/06/29 07:10:46;;;;;;;;;;;;;;;31.02;34.64;100729.38;4964594;27;97861;-72
2023/06/29 07:13:13;;;;;;;;;;;;;;;32.09;33.59;100727.38;4924906;28;98489;-73
2023/06/29 07:15:39;;;;;;;;;;;;;;;32.94;33.05;100726.72;4944134;27;98275;-67
2023/06/29 07:18:06;;;;;;;;;;;;;;;33.45;32.75;100726.97;4933121;27;98022;-67
2023/06/29 07:20:32;;;;;;;;;;;;;;;33.84;33.25;100723.69;4932089;28;98485;-67
2023/06/29 07:22:59;;;;;;;;;;;;;;;34.30;32.89;100716.59;4943776;27;98197;-67
2023/06/29 07:25:25;;;;;;;;;;;;;;;34.85;32.75;100720.09;4931092;28;98165;-73
2023/06/29 07:27:52;;;;;;;;;;;;;;;35.45;32.47;100720.16;4943612;27;115599;-67
2023/06/29 07:30:18;;;;;;;;;;;;;;;36.02;32.20;100716.94;4930230;28;99172;-68
2023/06/29 07:32:45;;;;;;;;;;;;;;;36.58;32.00;100707.56;4924138;27;98050;-73
2023/06/29 07:35:12;;;;;;;;;;;;;;;37.19;31.76;100703.16;4949892;28;100997;-73
2023/06/29 07:37:39;;;;;;;;;;;;;;;37.73;31.81;100696.72;4951623;27;98321;-67
2023/06/29 07:40:06;;;;;;;;;;;;;;;36.73;32.32;100697.56;4932894;28;98267;-68
2023/06/29 07:42:32;;;;;;;;;;;;;;;36.37;32.88;100692.84;4930640;27;98312;-68
2023/06/29 07:44:59;;;;;;;;;;;;;;;36.24;33.13;100700.41;4920147;27;98233;-73
2023/06/29 07:47:25;;;;;;;;;;;;;;;36.22;32.95;100679.63;4923639;28;98119;-68
2023/06/29 07:49:54;;;;;;;;;;;;;;;35.17;33.92;100683.09;4947589;27;98047;-73
2023/06/29 07:52:22;;;;;;;;;;;;;;;34.48;34.59;100679.19;4923060;27;99584;-73
2023/06/29 07:54:49;;;;;;;;;;;;;;;34.41;34.00;100689.25;4932323;27;98201;-68
2023/06/29 07:57:15;;;;;;;;;;;;;;;34.37;33.98;100674.53;4926170;27;99595;-68
2023/06/29 07:59:42;;;;;;;;;;;;;;;35.41;33.29;100681.00;4934223;27;98090;-68
2023/06/29 08:02:09;;;;;;;;;;;;;;;36.27;32.52;100679.06;4953227;27;98207;-73
2023/06/29 08:04:35;;;;;;;;;;;;;;;35.72;33.24;100677.97;4929299;28;99545;-68
2023/06/29 08:07:02;;;;;;;;;;;;;;;35.90;33.07;100679.13;4943478;27;98181;-73
2023/06/29 08:09:28;;;;;;;;;;;;;;;35.39;33.65;100680.66;4925826;28;98408;-68
2023/06/29 08:11:55;;;;;;;;;;;;;;;35.47;33.29;100670.88;4930426;28;98475;-72
2023/06/29 08:14:21;;;;;;;;;;;;;;;36.35;32.66;100674.84;4931311;27;98118;-73
2023/06/29 08:16:48;;;;;;;;;;;;;;;35.79;33.38;100678.59;4933596;27;98080;-73
2023/06/29 08:19:15;;;;;;;;;;;;;;;37.02;31.93;100672.34;4928848;28;97941;-72
2023/06/29 08:21:42;;;;;;;;;;;;;;;36.70;32.55;100670.34;4929341;27;98148;-68
2023/06/29 08:24:08;;;;;;;;;;;;;;;36.59;32.92;100667.88;4950868;28;98594;-74
2023/06/29 08:26:35;;;;;;;;;;;;;;;38.53;31.39;100669.22;4945820;28;98227;-73
2023/06/29 08:29:02;;;;;;;;;;;;;;;40.13;30.03;100672.91;4924560;27;98023;-69
2023/06/29 08:31:28;;;;;;;;;;;;;;;41.18;29.58;100664.28;4951025;28;99610;-68
2023/06/29 08:33:55;;;;;;;;;;;;;;;42.13;29.32;100669.44;4930515;28;98295;-69
2023/06/29 08:36:22;;;;;;;;;;;;;;;43.10;28.98;100672.94;4930949;28;98252;-69
2023/06/29 08:38:48;;;;;;;;;;;;;;;43.61;28.75;100664.00;4922372;28;98333;-73
2023/06/29 08:41:15;;;;;;;;;;;;;;;44.14;28.77;100652.88;4927451;28;99994;-69
2023/06/29 08:43:42;;;;;;;;;;;;;;;44.72;28.71;100648.97;4930538;27;98342;-74
2023/06/29 08:46:09;;;;;;;;;;;;;;;45.34;28.51;100648.78;4931616;28;98193;-69
2023/06/29 08:48:35;;;;;;;;;;;;;;;46.16;28.32;100643.38;4937333;28;98302;-74
2023/06/29 08:51:07;;;;;;;;;;;;;;;46.53;28.15;100651.00;4939160;27;98003;-69
2023/06/29 08:53:33;;;;;;;;;;;;;;;46.94;27.93;100646.47;4950940;28;99086;-74
2023/06/29 08:56:00;;;;;;;;;;;;;;;47.58;28.04;100646.72;4921380;27;98039;-74
2023/06/29 08:58:26;;;;;;;;;;;;;;;46.23;29.36;100622.97;4928642;28;98467;-75
2023/06/29 09:00:53;;;;;;;;;;;;;;;43.21;31.46;100622.09;4928165;28;98279;-75
2023/06/29 09:03:20;;;;;;;;;;;;;;;45.53;29.34;100628.00;4923616;27;97842;-75
2023/06/29 09:05:47;;;;;;;;;;;;;;;45.13;29.66;100623.31;4929134;27;98137;-69
2023/06/29 09:08:13;;;;;;;;;;;;;;;46.14;28.77;100626.00;4930835;28;98260;-75
2023/06/29 09:10:46;;;;;;;;;;;;;;;47.20;28.06;100619.78;4931462;27;98213;-69
2023/06/29 09:13:13;;;;;;;;;;;;;;;47.19;28.26;100623.94;4946896;28;98083;-75
2023/06/29 09:15:40;;;;;;;;;;;;;;;45.54;29.81;100618.19;4930127;28;97946;-75
2023/06/29 09:18:07;;;;;;;;;;;;;;;43.59;31.38;100604.16;4945536;28;98100;-69
2023/06/29 09:20:35;;;;;;;;;;;;;;;45.74;29.40;100611.56;4928436;28;99345;-69
2023/06/29 09:23:05;;;;;;;;;;;;;;;46.48;28.64;100609.84;4937228;27;100033;-75
2023/06/29 09:25:33;;;;;;;;;;;;;;;43.75;30.89;100604.91;4944989;28;98085;-75
2023/06/29 09:28:04;;;;;;;;;;;;;;;41.90;32.29;100596.66;4928789;28;98455;-69
2023/06/29 09:30:37;;;;;;;;;;;;;;;40.61;33.16;100599.09;4928664;28;99090;-69
2023/06/29 09:33:08;;;;;;;;;;;;;;;39.52;33.66;100601.19;4940848;28;99645;-69
2023/06/29 09:35:34;;;;;;;;;;;;;;;39.37;33.67;100595.34;4931969;28;99808;-69
2023/06/29 09:38:04;;;;;;;;;;;;;;;41.59;31.06;100594.13;4932983;27;98191;-75
2023/06/29 09:40:31;;;;;;;;;;;;;;;43.49;29.72;100607.63;4947627;28;98256;-75
2023/06/29 09:43:01;;;;;;;;;;;;;;;44.64;28.94;100610.91;4952073;28;98156;-75
2023/06/29 09:45:30;;;;;;;;;;;;;;;45.48;28.53;100608.84;4933325;28;97910;-69
2023/06/29 09:47:56;;;;;;;;;;;;;;;46.48;27.82;100602.06;4935014;27;98385;-73
2023/06/29 09:50:24;;;;;;;;;;;;;;;47.14;27.83;100593.34;4926005;27;98141;-66
2023/06/29 09:52:55;;;;;;;;;;;;;;;47.62;27.40;100589.38;4936273;27;97962;-69
2023/06/29 09:55:28;;;;;;;;;;;;;;;48.13;27.48;100590.78;4950586;27;98119;-76
2023/06/29 09:57:55;;;;;;;;;;;;;;;48.51;27.51;100596.03;4944634;27;98236;-69
2023/06/29 10:00:22;;;;;;;;;;;;;;;48.83;27.24;100588.53;4931204;27;99584;-75
2023/06/29 10:02:48;;;;;;;;;;;;;;;49.29;27.02;100588.94;4946703;28;98138;-74
2023/06/29 10:05:14;;;;;;;;;;;;;;;49.38;27.44;100582.84;4955336;28;112610;-69
2023/06/29 10:07:40;;;;;;;;;;;;;;;49.67;27.34;100577.59;4934822;27;98191;-69
2023/06/29 10:10:09;;;;;;;;;;;;;;;48.48;28.03;100579.97;4931629;28;98339;-69
2023/06/29 10:12:35;;;;;;;;;;;;;;;48.80;27.87;100574.53;4933043;27;98359;-69
2023/06/29 10:15:08;;;;;;;;;;;;;;;49.05;27.65;100572.47;4952901;28;97908;-69
2023/06/29 10:18:20;;;;;;;;;;;;;;;49.35;27.48;100572.47;4935250;27;98100;-69
2023/06/29 10:20:46;;;;;;;;;;;;;;;49.41;27.65;100558.91;4954704;28;98355;-69
2023/06/29 10:23:14;;;;;;;;;;;;;;;49.40;27.76;100557.31;4944829;28;111344;-75
2023/06/29 10:25:43;;;;;;;;;;;;;;;49.34;27.98;100548.03;4933176;27;97920;-69
2023/06/29 10:28:10;;;;;;;;;;;;;;;49.23;27.94;100551.03;4938961;27;97986;-70
2023/06/29 10:30:50;;;;;;;;;;;;;;;49.00;28.17;100547.59;4939079;28;98049;-75
2023/06/29 10:33:23;;;;;;;;;;;;;;;48.81;28.35;100550.34;4952075;28;98139;-75
2023/06/29 10:35:58;;;;;;;;;;;;;;;48.92;28.31;100542.44;4932907;28;98781;-75
2023/06/29 10:38:34;;;;;;;;;;;;;;;49.02;28.13;100540.03;4929960;28;98248;-76
2023/06/29 10:41:04;;;;;;;;;;;;;;;49.05;28.07;100538.97;4948053;27;99148;-75
2023/06/29 10:43:58;;;;;;;;;;;;;;;49.30;28.00;100530.41;4926287;27;98029;-69
2023/06/29 10:46:49;;;;;;;;;;;;;;;48.23;28.96;100542.72;4948436;28;98546;-69
2023/06/29 10:49:25;;;;;;;;;;;;;;;46.60;30.19;100530.88;4948400;27;99552;-69
2023/06/29 10:52:04;;;;;;;;;;;;;;;47.85;28.70;100522.38;4932274;27;98215;-75
2023/06/29 10:54:32;;;;;;;;;;;;;;;47.97;28.94;100530.88;4935496;28;98119;-76
2023/06/29 10:57:01;;;;;;;;;;;;;;;47.20;28.92;100522.81;4931711;27;98559;-75
2023/06/29 10:59:32;;;;;;;;;;;;;;;46.47;29.82;100519.97;4950260;28;99062;-69
2023/06/29 11:01:59;;;;;;;;;;;;;;;45.68;30.24;100513.25;4949835;27;98375;-69
2023/06/29 11:04:26;;;;;;;;;;;;;;;44.93;30.38;100513.31;4932062;28;99212;-76
2023/06/29 11:06:53;;;;;;;;;;;;;;;44.83;30.35;100514.75;4932783;27;98205;-69
2023/06/29 11:09:19;;;;;;;;;;;;;;;43.85;30.94;100504.16;4932130;28;98097;-69
2023/06/29 11:11:47;;;;;;;;;;;;;;;43.04;31.29;100499.94;4946245;28;99673;-69
2023/06/29 11:14:17;;;;;;;;;;;;;;;42.08;32.01;100496.69;4943266;27;99373;-75
2023/06/29 11:16:44;;;;;;;;;;;;;;;42.13;32.04;100501.66;4932635;27;98132;-75
2023/06/29 11:19:11;;;;;;;;;;;;;;;44.38;29.54;100494.47;4931163;28;100707;-75
2023/06/29 11:21:38;;;;;;;;;;;;;;;42.68;30.77;100495.50;4931959;28;99065;-69
2023/06/29 11:24:05;;;;;;;;;;;;;;;41.47;32.00;100488.50;4933049;28;98176;-75
2023/06/29 11:26:31;;;;;;;;;;;;;;;43.51;30.09;100489.59;4948223;28;97810;-69
2023/06/29 11:28:57;;;;;;;;;;;;;;;43.17;30.56;100493.19;4925487;27;98139;-75
2023/06/29 11:31:25;;;;;;;;;;;;;;;41.02;32.20;100484.59;4931583;28;98817;-75
2023/06/29 11:33:51;;;;;;;;;;;;;;;41.34;31.58;100482.25;4923684;27;98244;-69
2023/06/29 11:36:28;;;;;;;;;;;;;;;42.74;30.03;100485.03;4948715;28;98285;-76
2023/06/29 11:39:10;;;;;;;;;;;;;;;41.30;31.62;100468.28;4935204;28;98255;-66
2023/06/29 11:41:40;;;;;;;;;;;;;;;39.45;33.20;100466.19;4928166;27;98067;-69
2023/06/29 11:44:06;;;;;;;;;;;;;;;39.85;32.45;100456.88;4946133;27;98241;-69
2023/06/29 11:46:33;;;;;;;;;;;;;;;39.92;32.40;100460.16;4929072;27;98155;-69
2023/06/29 11:49:03;;;;;;;;;;;;;;;40.32;31.73;100459.19;4949796;27;98045;-70
2023/06/29 11:51:33;;;;;;;;;;;;;;;39.91;31.93;100455.78;4935236;28;98113;-75
2023/06/29 11:53:59;;;;;;;;;;;;;;;39.22;32.61;100453.44;4928929;28;97998;-75
2023/06/29 11:56:35;;;;;;;;;;;;;;;39.38;32.06;100456.03;4947237;28;99249;-76
2023/06/29 11:59:06;;;;;;;;;;;;;;;39.91;31.49;100449.34;4939650;27;98279;-70
2023/06/29 12:01:35;;;;;;;;;;;;;;;40.40;31.33;100457.63;4931377;28;98055;-76
2023/06/29 12:04:07;;;;;;;;;;;;;;;40.68;31.46;100449.91;4947490;28;98300;-76
2023/06/29 12:06:34;;;;;;;;;;;;;;;40.90;30.80;100452.47;4950982;27;97888;-69
2023/06/29 12:09:01;;;;;;;;;;;;;;;41.03;30.98;100443.00;4929752;28;98705;-77
2023/06/29 12:11:27;;;;;;;;;;;;;;;41.11;31.02;100441.38;4931258;28;98010;-69
2023/06/29 12:13:54;;;;;;;;;;;;;;;41.25;31.03;100437.88;4942086;27;107663;-69
2023/06/29 12:16:20;;;;;;;;;;;;;;;41.25;30.97;100435.03;4943964;28;98110;-77
2023/06/29 12:18:48;;;;;;;;;;;;;;;40.58;31.48;100433.44;4935727;27;98197;-76
2023/06/29 12:21:19;;;;;;;;;;;;;;;39.15;32.46;100425.56;4930611;28;97971;-69
2023/06/29 12:23:46;;;;;;;;;;;;;;;38.06;33.25;100430.13;4929716;28;98224;-76
2023/06/29 12:26:14;;;;;;;;;;;;;;;37.27;33.33;100427.19;4930600;28;98288;-69
2023/06/29 12:28:40;;;;;;;;;;;;;;;36.68;33.60;100428.66;4932223;28;98204;-76
2023/06/29 12:31:07;;;;;;;;;;;;;;;36.45;33.42;100428.94;4944785;28;98312;-76
2023/06/29 12:33:34;;;;;;;;;;;;;;;37.39;32.20;100419.19;4931706;27;98180;-76
2023/06/29 12:36:00;;;;;;;;;;;;;;;36.37;33.57;100414.31;4930428;28;98028;-76
2023/06/29 12:38:26;;;;;;;;;;;;;;;36.71;33.19;100416.53;4947801;28;97891;-76